createdAt,value
2022-08-17T00:01:30.362Z,23.48
2022-08-17T00:04:19.097Z,23.55
2022-08-17T00:06:45.921Z,23.47
2022-08-17T00:09:18.458Z,23.48
2022-08-17T00:12:41.015Z,23.50
2022-08-17T00:14:35.072Z,22.92
2022-08-17T00:17:03.831Z,22.32
2022-08-17T00:19:32.601Z,22.11
2022-08-17T00:22:32.215Z,22.95
2022-08-17T00:24:47.648Z,23.13
2022-08-17T00:27:14.757Z,23.27
2022-08-17T00:29:42.334Z,23.33
2022-08-17T00:33:14.415Z,23.36
2022-08-17T00:34:55.489Z,23.40
2022-08-17T00:37:22.072Z,23.33
2022-08-17T00:39:48.678Z,22.88
2022-08-17T00:42:17.703Z,23.05
2022-08-17T00:44:45.114Z,23.34
2022-08-17T00:47:11.663Z,23.21
2022-08-17T00:49:38.356Z,23.05
2022-08-17T00:52:15.647Z,23.18
2022-08-17T00:54:46.775Z,23.27
2022-08-17T00:57:18.756Z,23.28
2022-08-17T01:00:02.587Z,23.28
2022-08-17T01:02:40.470Z,23.06
2022-08-17T01:05:15.183Z,22.81
2022-08-17T01:07:43.529Z,22.40
2022-08-17T01:10:59.778Z,22.21
2022-08-17T01:13:02.637Z,22.64
2022-08-17T01:15:31.440Z,22.75
2022-08-17T01:17:58.112Z,23.03
2022-08-17T01:20:25.168Z,23.12
2022-08-17T01:22:52.431Z,23.03
2022-08-17T01:25:20.650Z,23.04
2022-08-17T01:27:49.238Z,22.95
2022-08-17T01:30:58.954Z,23.11
2022-08-17T01:33:04.408Z,23.22
2022-08-17T01:35:31.366Z,23.26
2022-08-17T01:37:57.940Z,23.24
2022-08-17T01:40:33.675Z,23.25
2022-08-17T01:43:06.026Z,23.27
2022-08-17T01:45:34.275Z,23.25
2022-08-17T01:48:01.227Z,23.27
2022-08-17T01:50:30.983Z,23.28
2022-08-17T01:53:03.095Z,23.27
2022-08-17T01:55:39.733Z,23.26
2022-08-17T01:58:09.760Z,23.27
2022-08-17T02:00:47.027Z,23.21
2022-08-17T02:03:26.011Z,23.24
2022-08-17T02:05:53.382Z,23.21
2022-08-17T02:08:21.501Z,23.09
2022-08-17T02:11:11.670Z,23.10
2022-08-17T02:13:39.098Z,23.01
2022-08-17T02:16:06.201Z,23.07
2022-08-17T02:18:33.233Z,23.07
2022-08-17T02:21:00.299Z,23.01
2022-08-17T02:23:30.388Z,23.05
2022-08-17T02:25:59.844Z,22.64
2022-08-17T02:28:28.441Z,22.84
2022-08-17T02:31:02.727Z,22.61
2022-08-17T02:33:41.840Z,22.95
2022-08-17T02:36:11.519Z,22.95
2022-08-17T02:38:39.479Z,22.95
2022-08-17T02:41:06.195Z,22.95
2022-08-17T02:43:32.833Z,22.90
2022-08-17T02:45:59.481Z,22.83
2022-08-17T02:48:30.633Z,22.84
2022-08-17T02:50:57.886Z,22.87
2022-08-17T02:53:25.903Z,22.88
2022-08-17T02:55:53.358Z,22.84
2022-08-17T02:58:34.593Z,22.78
2022-08-17T03:01:04.250Z,22.82
2022-08-17T03:03:31.031Z,22.79
2022-08-17T03:05:57.923Z,22.74
2022-08-17T03:08:25.610Z,22.82
2022-08-17T03:10:52.503Z,22.75
2022-08-17T03:13:19.412Z,22.80
2022-08-17T03:15:46.904Z,22.79
2022-08-17T03:18:18.923Z,22.74
2022-08-17T03:20:52.864Z,22.70
2022-08-17T03:23:24.038Z,22.69
2022-08-17T03:25:53.133Z,22.62
2022-08-17T03:28:20.921Z,22.59
2022-08-17T03:30:47.631Z,22.65
2022-08-17T03:33:14.710Z,22.66
2022-08-17T03:35:41.522Z,22.66
2022-08-17T03:38:12.606Z,22.59
2022-08-17T03:40:57.105Z,22.62
2022-08-17T03:43:28.888Z,22.58
2022-08-17T03:46:28.340Z,22.53
2022-08-17T03:49:20.704Z,22.50
2022-08-17T03:52:05.823Z,22.09
2022-08-17T03:54:51.035Z,22.39
2022-08-17T03:57:18.544Z,22.44
2022-08-17T03:59:45.429Z,22.29
2022-08-17T04:02:34.548Z,22.41
2022-08-17T04:05:01.942Z,22.42
2022-08-17T04:07:31.137Z,22.39
2022-08-17T04:09:58.326Z,22.43
2022-08-17T04:12:30.989Z,22.43
2022-08-17T04:14:58.020Z,22.40
2022-08-17T04:17:27.674Z,22.35
2022-08-17T04:19:55.071Z,22.33
2022-08-17T04:22:30.441Z,22.40
2022-08-17T04:24:58.742Z,22.43
2022-08-17T04:27:25.540Z,22.42
2022-08-17T04:29:55.428Z,22.45
2022-08-17T04:33:00.515Z,22.46
2022-08-17T04:35:10.590Z,22.47
2022-08-17T04:37:37.786Z,22.28
2022-08-17T04:40:23.168Z,22.38
2022-08-17T04:43:05.484Z,22.27
2022-08-17T04:45:32.635Z,22.34
2022-08-17T04:48:01.461Z,22.35
2022-08-17T04:50:28.292Z,22.39
2022-08-17T04:52:55.381Z,22.39
2022-08-17T04:55:22.228Z,22.45
2022-08-17T04:57:48.926Z,22.47
2022-08-17T05:00:15.721Z,22.51
2022-08-17T05:02:50.618Z,22.36
2022-08-17T05:05:32.474Z,22.31
2022-08-17T05:08:01.355Z,22.38
2022-08-17T05:10:30.784Z,22.11
2022-08-17T05:13:06.126Z,22.07
2022-08-17T05:15:35.897Z,21.95
2022-08-17T05:18:03.424Z,21.83
2022-08-17T05:20:30.363Z,21.84
2022-08-17T05:23:00.096Z,21.76
2022-08-17T05:25:33.283Z,21.83
2022-08-17T05:28:03.427Z,21.88
2022-08-17T05:30:30.227Z,21.95
2022-08-17T05:33:10.070Z,22.14
2022-08-17T05:35:39.604Z,22.21
2022-08-17T05:38:08.036Z,22.35
2022-08-17T05:40:36.354Z,22.27
2022-08-17T05:43:11.839Z,22.30
2022-08-17T05:45:55.521Z,22.33
2022-08-17T05:48:35.832Z,22.41
2022-08-17T05:51:43.338Z,22.38
2022-08-17T05:54:15.583Z,22.57
2022-08-17T05:57:00.655Z,22.66
2022-08-17T05:59:53.050Z,22.78
2022-08-17T06:02:35.146Z,22.77
2022-08-17T06:05:27.751Z,22.78
2022-08-17T06:08:17.750Z,22.87
2022-08-17T06:10:55.430Z,-140.71
2022-08-17T06:13:53.904Z,-140.71
2022-08-17T06:16:34.142Z,-140.71
2022-08-17T06:19:26.535Z,-140.71
2022-08-17T06:21:55.139Z,-140.71
2022-08-17T06:24:40.183Z,-140.71
2022-08-17T06:27:35.940Z,-140.71
2022-08-17T06:30:09.252Z,-140.71
2022-08-17T06:32:42.749Z,-140.71
2022-08-17T06:35:12.819Z,-140.71
2022-08-17T06:37:42.100Z,-140.71
2022-08-17T06:40:37.852Z,-140.71
2022-08-17T06:43:51.832Z,-140.71
2022-08-17T06:46:24.224Z,-140.71
2022-08-17T06:49:07.343Z,-140.71
2022-08-17T06:51:50.662Z,-140.71
2022-08-17T06:54:35.557Z,-140.71
2022-08-17T06:57:20.024Z,-140.71
2022-08-17T06:59:56.281Z,-140.71
2022-08-17T07:02:52.934Z,-140.71
2022-08-17T07:05:24.185Z,-140.71
2022-08-17T07:08:02.630Z,-140.71
2022-08-17T07:10:42.654Z,-140.71
2022-08-17T07:13:33.758Z,24.48
2022-08-17T07:16:36.301Z,24.47
2022-08-17T07:19:06.065Z,24.56
2022-08-17T07:22:20.663Z,24.69
2022-08-17T07:24:57.281Z,24.79
2022-08-17T07:27:38.772Z,24.86
2022-08-17T07:30:16.451Z,24.92
2022-08-17T07:32:57.830Z,25.06
2022-08-17T07:35:37.900Z,25.11
2022-08-17T07:38:28.318Z,25.19
2022-08-17T07:40:58.238Z,25.32
2022-08-17T07:43:26.370Z,25.40
2022-08-17T07:46:30.267Z,25.44
2022-08-17T07:49:37.349Z,25.57
2022-08-17T07:52:48.063Z,25.63
2022-08-17T07:54:54.941Z,25.67
2022-08-17T07:57:29.393Z,25.76
2022-08-17T07:59:59.468Z,25.86
2022-08-17T08:02:33.810Z,25.90
2022-08-17T08:05:01.836Z,26.01
2022-08-17T08:07:34.819Z,25.98
2022-08-17T08:10:07.663Z,26.09
2022-08-17T08:12:47.738Z,26.18
2022-08-17T08:15:20.996Z,26.20
2022-08-17T08:17:53.505Z,26.29
2022-08-17T08:20:52.145Z,26.39
2022-08-17T08:23:39.185Z,26.52
2022-08-17T08:26:08.320Z,26.55
2022-08-17T08:28:46.743Z,26.58
2022-08-17T08:31:30.184Z,26.72
2022-08-17T08:34:55.877Z,26.71
2022-08-17T08:37:20.679Z,26.93
2022-08-17T08:40:08.804Z,26.99
2022-08-17T08:43:10.165Z,27.02
2022-08-17T08:45:41.351Z,-140.71
2022-08-17T08:48:53.874Z,-140.71
2022-08-17T08:51:47.061Z,-140.71
2022-08-17T08:54:37.699Z,-140.71
2022-08-17T08:57:30.967Z,-140.71
2022-08-17T09:00:21.283Z,-140.71
2022-08-17T09:03:09.160Z,-140.71
2022-08-17T09:05:44.694Z,-140.71
2022-08-17T09:08:20.738Z,-140.71
2022-08-17T09:10:59.831Z,-140.71
2022-08-17T09:13:38.503Z,-140.71
2022-08-17T09:16:15.334Z,-140.71
2022-08-17T09:19:01.747Z,-140.71
2022-08-17T09:22:31.608Z,-140.71
2022-08-17T09:25:03.269Z,-140.71
2022-08-17T09:27:42.972Z,-140.71
2022-08-17T09:30:11.947Z,-140.71
2022-08-17T09:32:44.104Z,-140.71
2022-08-17T09:35:19.950Z,-140.71
2022-08-17T09:38:04.743Z,-140.71
2022-08-17T09:40:43.488Z,-140.71
2022-08-17T09:43:27.626Z,-140.71
2022-08-17T09:46:02.269Z,27.02
2022-08-17T09:48:44.061Z,28.98
2022-08-17T09:51:20.241Z,29.07
2022-08-17T09:53:47.191Z,29.04
2022-08-17T09:56:29.057Z,29.01
2022-08-17T09:59:16.920Z,29.19
2022-08-17T10:01:51.674Z,29.18
2022-08-17T10:04:22.850Z,29.16
2022-08-17T10:07:13.465Z,29.37
2022-08-17T10:09:47.513Z,29.36
2022-08-17T10:12:30.237Z,29.36
2022-08-17T10:15:37.229Z,29.38
2022-08-17T10:18:25.513Z,29.70
2022-08-17T10:21:37.775Z,29.67
2022-08-17T10:25:21.344Z,29.89
2022-08-17T10:27:48.860Z,29.68
2022-08-17T10:30:18.865Z,29.78
2022-08-17T10:32:56.865Z,-140.71
2022-08-17T10:35:26.235Z,-140.71
2022-08-17T10:37:59.272Z,-140.71
2022-08-17T10:40:35.764Z,29.82
2022-08-17T10:43:29.927Z,30.04
2022-08-17T10:46:27.807Z,29.84
2022-08-17T10:48:44.490Z,29.87
2022-08-17T10:51:38.092Z,29.99
2022-08-17T10:54:06.698Z,29.98
2022-08-17T10:56:45.600Z,29.98
2022-08-17T10:59:34.969Z,30.02
2022-08-17T11:02:04.220Z,30.20
2022-08-17T11:05:11.727Z,30.19
2022-08-17T11:07:58.565Z,30.38
2022-08-17T11:10:42.143Z,30.27
2022-08-17T11:13:28.351Z,30.52
2022-08-17T11:16:13.210Z,30.67
2022-08-17T11:19:16.397Z,30.58
2022-08-17T11:22:06.949Z,30.60
2022-08-17T11:24:44.839Z,30.66
2022-08-17T11:27:34.031Z,30.61
2022-08-17T11:30:04.615Z,30.58
2022-08-17T11:32:33.645Z,30.62
2022-08-17T11:35:21.653Z,30.61
2022-08-17T11:37:54.154Z,30.65
2022-08-17T11:40:26.489Z,30.80
2022-08-17T11:42:53.144Z,30.86
2022-08-17T11:46:02.301Z,-140.71
2022-08-17T11:48:59.783Z,31.38
2022-08-17T11:52:09.713Z,31.14
2022-08-17T11:54:41.088Z,31.43
2022-08-17T11:57:25.653Z,31.75
2022-08-17T11:59:55.445Z,31.40
2022-08-17T12:02:31.598Z,31.38
2022-08-17T12:05:12.308Z,31.32
2022-08-17T12:07:48.902Z,31.40
2022-08-17T12:10:19.336Z,31.36
2022-08-17T12:12:50.331Z,-140.71
2022-08-17T12:15:30.281Z,31.37
2022-08-17T12:17:57.918Z,31.33
2022-08-17T12:20:34.828Z,31.39
2022-08-17T12:23:33.846Z,31.48
2022-08-17T12:26:07.325Z,31.61
2022-08-17T12:28:36.698Z,31.59
2022-08-17T12:31:07.611Z,31.62
2022-08-17T12:33:36.944Z,31.66
2022-08-17T12:36:08.547Z,31.72
2022-08-17T12:38:37.957Z,31.71
2022-08-17T12:41:26.401Z,31.56
2022-08-17T12:44:06.315Z,31.63
2022-08-17T12:47:22.231Z,31.61
2022-08-17T12:49:54.170Z,31.70
2022-08-17T12:52:24.969Z,31.75
2022-08-17T12:55:01.934Z,31.53
2022-08-17T12:57:51.474Z,31.13
2022-08-17T13:00:28.816Z,30.91
2022-08-17T13:02:55.291Z,30.84
2022-08-17T13:05:27.693Z,30.75
2022-08-17T13:07:56.042Z,30.74
2022-08-17T13:10:32.183Z,30.63
2022-08-17T13:13:04.941Z,30.46
2022-08-17T13:15:51.236Z,30.38
2022-08-17T13:18:39.059Z,30.31
2022-08-17T13:21:23.772Z,30.68
2022-08-17T13:24:04.871Z,31.04
2022-08-17T13:26:31.352Z,31.28
2022-08-17T13:28:58.739Z,31.42
2022-08-17T13:31:28.272Z,31.57
2022-08-17T13:34:18.865Z,31.57
2022-08-17T13:36:47.958Z,31.74
2022-08-17T13:39:21.575Z,31.78
2022-08-17T13:41:50.145Z,31.74
2022-08-17T13:44:37.684Z,31.71
2022-08-17T13:47:14.699Z,31.83
2022-08-17T13:49:48.915Z,31.95
2022-08-17T13:52:38.753Z,32.00
2022-08-17T13:55:18.845Z,32.17
2022-08-17T13:57:48.030Z,32.21
2022-08-17T14:00:32.461Z,32.22
2022-08-17T14:03:00.806Z,32.24
2022-08-17T14:05:28.528Z,32.21
2022-08-17T14:08:06.883Z,32.15
2022-08-17T14:10:36.399Z,32.50
2022-08-17T14:13:04.345Z,32.48
2022-08-17T14:15:55.063Z,32.41
2022-08-17T14:18:19.023Z,32.83
2022-08-17T14:21:05.832Z,32.59
2022-08-17T14:23:32.972Z,32.64
2022-08-17T14:25:59.891Z,32.76
2022-08-17T14:28:27.819Z,32.73
2022-08-17T14:30:54.563Z,32.65
2022-08-17T14:33:22.724Z,32.73
2022-08-17T14:35:52.990Z,32.67
2022-08-17T14:38:20.693Z,32.49
2022-08-17T14:40:48.157Z,32.54
2022-08-17T14:43:15.900Z,32.84
2022-08-17T14:45:43.309Z,32.78
2022-08-17T14:48:10.535Z,32.67
2022-08-17T14:50:40.947Z,32.71
2022-08-17T14:53:10.192Z,32.76
2022-08-17T14:55:39.931Z,32.78
2022-08-17T14:58:07.582Z,32.73
2022-08-17T15:00:34.925Z,32.62
2022-08-17T15:03:01.988Z,32.33
2022-08-17T15:05:33.572Z,32.70
2022-08-17T15:08:01.806Z,32.64
2022-08-17T15:10:29.903Z,32.55
2022-08-17T15:12:56.932Z,32.47
2022-08-17T15:15:23.715Z,32.37
2022-08-17T15:17:51.396Z,32.27
2022-08-17T15:20:27.247Z,32.28
2022-08-17T15:22:57.340Z,32.19
2022-08-17T15:25:27.659Z,32.16
2022-08-17T15:27:56.198Z,32.14
2022-08-17T15:30:23.412Z,32.07
2022-08-17T15:32:55.289Z,31.99
2022-08-17T15:35:29.153Z,31.82
2022-08-17T15:38:08.008Z,31.73
2022-08-17T15:40:39.981Z,31.64
2022-08-17T15:43:12.847Z,31.58
2022-08-17T15:45:40.098Z,31.44
2022-08-17T15:48:07.523Z,31.40
2022-08-17T15:50:34.302Z,31.36
2022-08-17T15:53:02.020Z,31.25
2022-08-17T15:55:30.374Z,31.19
2022-08-17T15:57:57.111Z,31.17
2022-08-17T16:00:24.104Z,31.10
2022-08-17T16:03:13.662Z,31.07
2022-08-17T16:05:37.735Z,31.00
2022-08-17T16:08:07.585Z,30.97
2022-08-17T16:10:35.647Z,30.93
2022-08-17T16:13:04.007Z,30.88
2022-08-17T16:15:33.652Z,30.81
2022-08-17T16:18:00.246Z,30.73
2022-08-17T16:20:27.374Z,30.69
2022-08-17T16:22:54.468Z,30.62
2022-08-17T16:25:53.026Z,30.63
2022-08-17T16:28:14.252Z,30.58
2022-08-17T16:30:41.317Z,30.54
2022-08-17T16:33:11.422Z,30.51
2022-08-17T16:35:38.533Z,30.37
2022-08-17T16:38:05.317Z,30.36
2022-08-17T16:40:36.045Z,30.30
2022-08-17T16:43:10.633Z,30.17
2022-08-17T16:45:40.216Z,30.03
2022-08-17T16:48:08.055Z,30.03
2022-08-17T16:50:35.528Z,30.05
2022-08-17T16:53:06.617Z,30.00
2022-08-17T16:55:35.527Z,29.93
2022-08-17T16:58:04.479Z,29.86
2022-08-17T17:00:31.218Z,29.79
2022-08-17T17:03:19.955Z,29.76
2022-08-17T17:05:57.937Z,29.77
2022-08-17T17:08:26.974Z,29.75
2022-08-17T17:10:56.556Z,29.74
2022-08-17T17:13:46.909Z,29.72
2022-08-17T17:16:29.520Z,29.68
2022-08-17T17:19:03.274Z,29.62
2022-08-17T17:21:37.945Z,29.57
2022-08-17T17:24:10.042Z,29.49
2022-08-17T17:27:18.486Z,29.47
2022-08-17T17:30:14.636Z,29.47
2022-08-17T17:32:41.185Z,29.46
2022-08-17T17:35:32.608Z,29.45
2022-08-17T17:38:06.065Z,29.44
2022-08-17T17:40:40.232Z,29.43
2022-08-17T17:43:36.853Z,29.42
2022-08-17T17:46:26.712Z,29.35
2022-08-17T17:48:50.874Z,29.34
2022-08-17T17:51:17.572Z,29.33
2022-08-17T17:54:20.700Z,29.30
2022-08-17T17:56:58.141Z,29.17
2022-08-17T17:59:44.326Z,29.21
2022-08-17T18:02:52.056Z,29.17
2022-08-17T18:05:34.800Z,29.13
2022-08-17T18:08:11.038Z,29.09
2022-08-17T18:10:56.309Z,29.04
2022-08-17T18:13:42.407Z,29.00
2022-08-17T18:16:13.506Z,28.85
2022-08-17T18:18:52.347Z,28.90
2022-08-17T18:21:28.773Z,28.88
2022-08-17T18:24:01.400Z,28.84
2022-08-17T18:26:42.022Z,28.78
2022-08-17T18:29:32.429Z,28.65
2022-08-17T18:32:12.905Z,28.67
2022-08-17T18:34:48.582Z,28.63
2022-08-17T18:37:31.468Z,28.59
2022-08-17T18:39:58.238Z,28.57
2022-08-17T18:42:28.783Z,28.53
2022-08-17T18:44:56.164Z,28.44
2022-08-17T18:47:29.050Z,28.38
2022-08-17T18:49:58.907Z,28.38
2022-08-17T18:52:29.995Z,28.33
2022-08-17T18:55:35.450Z,28.29
2022-08-17T18:58:16.283Z,28.25
2022-08-17T19:00:45.741Z,28.22
2022-08-17T19:03:15.441Z,28.16
2022-08-17T19:05:54.730Z,28.15
2022-08-17T19:08:34.152Z,28.12
2022-08-17T19:11:34.446Z,28.07
2022-08-17T19:14:06.822Z,28.02
2022-08-17T19:16:54.466Z,27.99
2022-08-17T19:19:33.291Z,27.97
2022-08-17T19:22:30.905Z,27.91
2022-08-17T19:25:16.092Z,27.64
2022-08-17T19:27:57.784Z,27.64
2022-08-17T19:30:25.990Z,27.68
2022-08-17T19:32:53.169Z,27.73
2022-08-17T19:35:22.261Z,27.66
2022-08-17T19:38:12.750Z,27.68
2022-08-17T19:41:04.502Z,27.66
2022-08-17T19:44:11.078Z,27.61
2022-08-17T19:46:56.204Z,27.53
2022-08-17T19:49:49.851Z,27.49
2022-08-17T19:52:33.303Z,27.46
2022-08-17T19:55:07.210Z,27.39
2022-08-17T19:57:39.859Z,27.40
2022-08-17T20:00:13.567Z,27.32
2022-08-17T20:02:52.203Z,27.35
2022-08-17T20:06:01.421Z,27.31
2022-08-17T20:08:32.247Z,27.22
2022-08-17T20:11:06.988Z,27.23
2022-08-17T20:13:40.165Z,27.22
2022-08-17T20:16:08.326Z,27.17
2022-08-17T20:18:49.194Z,27.12
2022-08-17T20:21:20.374Z,27.10
2022-08-17T20:24:05.602Z,27.08
2022-08-17T20:26:57.972Z,27.05
2022-08-17T20:29:37.252Z,27.00
2022-08-17T20:32:17.490Z,26.98
2022-08-17T20:34:47.171Z,26.90
2022-08-17T20:37:13.633Z,26.92
2022-08-17T20:40:05.897Z,26.92
2022-08-17T20:42:33.892Z,26.87
2022-08-17T20:45:21.740Z,26.79
2022-08-17T20:48:18.522Z,26.67
2022-08-17T20:50:45.325Z,26.75
2022-08-17T20:53:32.545Z,26.63
2022-08-17T20:56:00.250Z,26.68
2022-08-17T20:58:30.661Z,26.66
2022-08-17T21:00:57.937Z,26.67
2022-08-17T21:03:24.578Z,26.65
2022-08-17T21:06:00.045Z,26.61
2022-08-17T21:08:33.899Z,26.59
2022-08-17T21:11:21.048Z,26.55
2022-08-17T21:14:27.346Z,26.57
2022-08-17T21:17:02.032Z,26.53
2022-08-17T21:20:11.539Z,26.48
2022-08-17T21:23:03.975Z,26.43
2022-08-17T21:25:40.281Z,26.25
2022-08-17T21:28:12.897Z,26.18
2022-08-17T21:30:39.373Z,26.20
2022-08-17T21:33:16.434Z,26.16
2022-08-17T21:36:01.640Z,26.17
2022-08-17T21:38:37.377Z,26.18
2022-08-17T21:41:04.354Z,26.15
2022-08-17T21:43:35.377Z,25.97
2022-08-17T21:46:04.432Z,26.12
2022-08-17T21:48:41.489Z,26.18
2022-08-17T21:51:20.750Z,26.13
2022-08-17T21:53:57.013Z,26.14
2022-08-17T21:56:31.706Z,26.11
2022-08-17T21:59:02.812Z,26.15
2022-08-17T22:01:39.359Z,26.11
2022-08-17T22:04:12.198Z,26.10
2022-08-17T22:06:56.822Z,26.07
2022-08-17T22:09:33.638Z,25.99
2022-08-17T22:12:12.719Z,26.01
2022-08-17T22:14:52.180Z,25.97
2022-08-17T22:17:22.784Z,25.93
2022-08-17T22:19:49.242Z,25.91
2022-08-17T22:22:30.165Z,25.90
2022-08-17T22:25:00.136Z,25.91
2022-08-17T22:27:47.928Z,25.78
2022-08-17T22:30:28.899Z,25.83
2022-08-17T22:32:56.336Z,25.84
2022-08-17T22:35:28.921Z,25.82
2022-08-17T22:37:56.642Z,25.79
2022-08-17T22:40:33.315Z,25.72
2022-08-17T22:43:03.112Z,25.72
2022-08-17T22:45:30.457Z,25.69
2022-08-17T22:47:59.848Z,25.61
2022-08-17T22:50:29.192Z,25.63
2022-08-17T22:53:43.604Z,25.60
2022-08-17T22:56:39.823Z,25.43
2022-08-17T22:59:22.512Z,25.43
2022-08-17T23:02:11.783Z,25.41
2022-08-17T23:04:41.450Z,25.35
2022-08-17T23:07:08.207Z,25.35
2022-08-17T23:09:35.937Z,25.31
2022-08-17T23:12:07.183Z,25.29
2022-08-17T23:14:39.251Z,24.91
2022-08-17T23:17:06.524Z,25.16
2022-08-17T23:19:33.553Z,25.17
2022-08-17T23:22:02.809Z,25.24
2022-08-17T23:24:31.766Z,25.25
2022-08-17T23:26:58.994Z,25.24
2022-08-17T23:29:29.493Z,25.22
2022-08-17T23:32:00.063Z,25.20
2022-08-17T23:34:28.156Z,25.12
2022-08-17T23:36:55.426Z,25.10
2022-08-17T23:39:27.272Z,25.16
2022-08-17T23:41:54.984Z,25.14
2022-08-17T23:44:23.524Z,25.12
2022-08-17T23:46:51.501Z,25.06
2022-08-17T23:49:19.151Z,24.45
2022-08-17T23:51:47.857Z,24.01
2022-08-17T23:54:38.583Z,24.65
2022-08-17T23:57:05.204Z,24.78
2022-08-17T23:59:32.966Z,24.37
